Time;durP1;ratioP1;P1;durP2;ratioP2;P2;SDS_P1;SDS_P2;PMS_P1;PMS_P2;Temp;Humidity;BMP_temperature;BMP_pressure;BME280_temperature;BME280_humidity;BME280_pressure;Samples;Min_cycle;Max_cycle;Signal;HPM_P1;HPM_P2
2021/01/08 00:02:21;;;;;;;4.27;1.97;;;2.00;99.90;;;;;;5083734;28;20184;-65
2021/01/08 00:04:47;;;;;;;12.60;8.27;;;2.10;99.90;;;;;;5104008;28;20222;-65
2021/01/08 00:07:12;;;;;;;1.70;0.20;;;2.20;99.90;;;;;;5091527;28;20597;-65
2021/01/08 00:09:38;;;;;;;3.83;2.67;;;2.20;99.90;;;;;;5086210;28;20188;-64
2021/01/08 00:12:05;;;;;;;2.43;0.73;;;2.10;99.90;;;;;;5091454;28;20216;-65
2021/01/08 00:14:30;;;;;;;10.15;5.95;;;2.10;99.90;;;;;;5089173;28;20246;-65
2021/01/08 00:16:56;;;;;;;1.70;0.20;;;2.10;99.90;;;;;;5087968;28;20205;-65
2021/01/08 00:19:22;;;;;;;1.70;0.20;;;2.00;99.90;;;;;;5072073;28;20184;-65
2021/01/08 00:21:47;;;;;;;2.67;0.77;;;2.10;99.90;;;;;;5087298;28;20212;-65
2021/01/08 00:24:13;;;;;;;1.80;0.30;;;2.00;99.90;;;;;;5087476;28;20255;-65
2021/01/08 00:26:40;;;;;;;1.70;0.20;;;2.00;99.90;;;;;;5090970;28;20241;-66
2021/01/08 00:29:10;;;;;;;5.00;1.75;;;2.10;99.90;;;;;;5086495;28;20196;-64
2021/01/08 00:31:40;;;;;;;1.70;0.30;;;2.10;99.90;;;;;;5087490;28;20278;-66
2021/01/08 00:34:06;;;;;;;2.65;0.98;;;2.10;99.90;;;;;;5089899;28;20205;-65
2021/01/08 00:36:33;;;;;;;2.10;0.77;;;2.10;99.90;;;;;;5066250;28;20234;-64
2021/01/08 00:38:58;;;;;;;1.73;0.20;;;2.00;99.90;;;;;;5090237;28;20176;-65
2021/01/08 00:41:29;;;;;;;2.00;1.03;;;2.00;99.90;;;;;;5086493;28;20199;-65
2021/01/08 00:43:54;;;;;;;2.47;1.95;;;2.00;99.90;;;;;;5083552;28;20404;-65
2021/01/08 00:46:20;;;;;;;1.73;0.20;;;2.00;99.90;;;;;;5090020;28;20214;-65
2021/01/08 00:48:47;;;;;;;4.77;2.60;;;2.00;99.90;;;;;;5089324;28;20266;-65
2021/01/08 00:51:13;;;;;;;3.58;1.20;;;1.90;99.90;;;;;;5083715;28;20200;-65
2021/01/08 00:53:40;;;;;;;7.30;5.15;;;2.00;99.90;;;;;;5087693;28;20195;-65
2021/01/08 00:56:16;;;;;;;1.77;0.30;;;2.00;99.90;;;;;;5089820;28;20199;-65
2021/01/08 00:58:42;;;;;;;1.73;0.20;;;2.00;99.90;;;;;;5083841;28;20180;-65
2021/01/08 01:01:07;;;;;;;1.80;0.40;;;2.10;99.90;;;;;;5089461;28;20786;-65
2021/01/08 01:03:33;;;;;;;1.80;0.20;;;2.20;99.90;;;;;;5069165;28;20172;-65
2021/01/08 01:05:58;;;;;;;6.27;2.77;;;2.20;99.90;;;;;;5065851;28;20187;-65
2021/01/08 01:08:24;;;;;;;1.73;0.20;;;2.10;99.90;;;;;;5090793;28;20191;-65
2021/01/08 01:10:50;;;;;;;1.70;0.20;;;2.10;99.90;;;;;;5085549;28;20226;-65
2021/01/08 01:13:15;;;;;;;1.70;0.30;;;2.20;99.90;;;;;;5088431;28;20285;-64
2021/01/08 01:15:41;;;;;;;1.70;0.20;;;2.20;99.90;;;;;;5073582;28;20195;-64
2021/01/08 01:18:06;;;;;;;3.23;1.70;;;2.20;99.90;;;;;;5089035;28;20185;-64
2021/01/08 01:20:32;;;;;;;1.80;0.40;;;2.30;99.90;;;;;;5087220;28;20566;-64
2021/01/08 01:22:57;;;;;;;2.40;0.70;;;2.20;99.90;;;;;;5084342;28;20655;-64
2021/01/08 01:25:22;;;;;;;2.80;0.73;;;2.20;99.90;;;;;;5084401;28;20192;-64
2021/01/08 01:27:48;;;;;;;2.07;0.73;;;2.20;99.90;;;;;;5087642;28;20239;-64
2021/01/08 01:30:14;;;;;;;2.10;0.90;;;2.20;99.90;;;;;;5085196;28;20669;-64
2021/01/08 01:32:40;;;;;;;1.70;0.20;;;2.10;99.90;;;;;;5084530;28;20191;-64
2021/01/08 01:35:06;;;;;;;1.70;0.20;;;2.20;99.90;;;;;;5095735;28;20239;-64
2021/01/08 01:37:31;;;;;;;3.85;0.95;;;2.20;99.90;;;;;;5100701;28;20169;-64
2021/01/08 01:39:57;;;;;;;1.70;0.20;;;2.20;99.90;;;;;;5100215;28;20242;-64
2021/01/08 01:42:22;;;;;;;2.43;1.60;;;2.20;99.90;;;;;;5105273;28;20250;-64
2021/01/08 01:44:49;;;;;;;1.70;0.20;;;2.20;99.90;;;;;;5097499;28;20188;-64
2021/01/08 01:47:14;;;;;;;1.70;0.20;;;2.10;99.90;;;;;;5097048;28;20179;-64
2021/01/08 01:49:40;;;;;;;5.30;0.93;;;2.10;99.90;;;;;;5103233;28;20196;-64
2021/01/08 01:52:06;;;;;;;2.30;1.00;;;2.20;99.90;;;;;;5089527;28;20191;-65
2021/01/08 01:54:31;;;;;;;1.70;0.20;;;2.30;99.90;;;;;;5091845;28;20466;-64
2021/01/08 01:56:57;;;;;;;9.97;4.50;;;2.20;99.90;;;;;;5092136;28;20202;-64
2021/01/08 01:59:22;;;;;;;1.80;0.40;;;2.20;99.90;;;;;;5083816;28;20180;-66
2021/01/08 02:01:48;;;;;;;6.17;0.80;;;2.20;99.90;;;;;;5091854;28;20238;-64
2021/01/08 02:04:14;;;;;;;2.80;1.60;;;2.30;99.90;;;;;;5088317;28;20176;-64
2021/01/08 02:06:40;;;;;;;5.20;3.30;;;2.20;99.90;;;;;;5085657;28;20188;-64
2021/01/08 02:09:09;;;;;;;4.85;2.05;;;2.20;99.90;;;;;;5092401;28;20541;-65
2021/01/08 02:11:35;;;;;;;9.83;5.57;;;2.20;99.90;;;;;;5072914;28;515239;-64
2021/01/08 02:14:19;;;;;;;2.42;0.98;;;2.10;99.90;;;;;;5087691;28;20189;-64
2021/01/08 02:16:49;;;;;;;1.73;0.20;;;2.10;99.90;;;;;;5093815;28;20226;-64
2021/01/08 02:19:25;;;;;;;1.70;0.20;;;2.10;99.90;;;;;;5087666;28;20188;-64
2021/01/08 02:22:16;;;;;;;2.75;1.10;;;2.10;99.90;;;;;;5082873;28;20261;-64
2021/01/08 02:25:00;;;;;;;2.20;0.88;;;2.20;99.90;;;;;;5088990;28;20185;-64
2021/01/08 02:27:28;;;;;;;2.25;0.63;;;2.20;99.90;;;;;;5091548;28;20183;-64
2021/01/08 02:29:54;;;;;;;2.40;0.68;;;2.20;99.90;;;;;;5087499;28;20572;-64
2021/01/08 02:32:20;;;;;;;1.70;0.20;;;2.20;99.90;;;;;;5087956;28;20184;-64
2021/01/08 02:34:46;;;;;;;4.87;2.00;;;2.20;99.90;;;;;;5089171;28;20822;-64
2021/01/08 02:37:11;;;;;;;1.73;0.20;;;2.20;99.90;;;;;;5124476;22;20477;-61
2021/01/08 02:39:37;;;;;;;4.60;2.20;;;2.10;99.90;;;;;;5109179;27;20195;-61
2021/01/08 02:42:06;;;;;;;4.03;1.43;;;2.10;99.90;;;;;;5116322;28;20557;-60
2021/01/08 02:44:31;;;;;;;1.73;0.20;;;2.10;99.90;;;;;;5114059;28;20437;-61
2021/01/08 02:46:57;;;;;;;5.93;2.50;;;2.10;99.90;;;;;;5113437;28;20207;-60
2021/01/08 02:49:22;;;;;;;7.40;3.07;;;2.10;99.90;;;;;;5115115;28;20187;-60
2021/01/08 02:51:48;;;;;;;1.70;0.20;;;2.10;99.90;;;;;;5113704;28;20179;-61
2021/01/08 02:54:14;;;;;;;3.33;1.30;;;2.00;99.90;;;;;;5121119;27;20179;-61
2021/01/08 02:56:50;;;;;;;2.17;0.73;;;2.00;99.90;;;;;;5106476;28;20218;-61
2021/01/08 02:59:16;;;;;;;2.45;0.93;;;2.00;99.90;;;;;;5113413;28;20408;-61
2021/01/08 03:01:42;;;;;;;3.60;1.60;;;2.00;99.90;;;;;;5117847;28;20188;-60
2021/01/08 03:04:08;;;;;;;1.73;0.30;;;2.10;99.90;;;;;;5113387;28;20190;-61
2021/01/08 03:06:33;;;;;;;1.70;0.20;;;2.10;99.90;;;;;;5115133;27;20207;-60
2021/01/08 03:09:00;;;;;;;10.90;5.20;;;2.10;99.90;;;;;;5118790;28;20218;-60
2021/01/08 03:11:25;;;;;;;5.75;1.45;;;2.10;99.90;;;;;;5115412;28;20203;-60
2021/01/08 03:13:53;;;;;;;1.70;0.20;;;2.00;99.90;;;;;;5115039;28;20492;-60
2021/01/08 03:16:18;;;;;;;3.53;1.95;;;2.00;99.90;;;;;;5119092;28;20203;-60
2021/01/08 03:18:44;;;;;;;1.70;0.20;;;2.00;99.90;;;;;;5113647;28;20183;-61
2021/01/08 03:21:10;;;;;;;26.53;17.90;;;1.90;99.90;;;;;;5119803;27;20481;-60
2021/01/08 03:23:35;;;;;;;2.43;1.23;;;2.00;99.90;;;;;;5116663;28;20353;-61
2021/01/08 03:26:01;;;;;;;5.47;2.47;;;2.00;99.90;;;;;;5109754;28;20180;-61
2021/01/08 03:28:27;;;;;;;7.93;5.43;;;2.00;99.90;;;;;;5112760;28;21042;-61
2021/01/08 03:30:52;;;;;;;1.70;0.20;;;1.90;99.90;;;;;;5109418;28;20191;-61
2021/01/08 03:33:18;;;;;;;4.73;2.60;;;1.90;99.90;;;;;;5110668;28;20198;-60
2021/01/08 03:35:43;;;;;;;2.37;1.80;;;2.00;99.90;;;;;;5116186;28;20203;-60
2021/01/08 03:38:09;;;;;;;1.70;0.20;;;2.00;99.90;;;;;;5110845;27;20205;-61
2021/01/08 03:40:36;;;;;;;1.80;0.20;;;2.00;99.90;;;;;;5114980;27;20269;-61
2021/01/08 03:43:02;;;;;;;5.50;2.75;;;2.10;99.90;;;;;;5118163;28;20712;-61
2021/01/08 03:45:28;;;;;;;1.80;0.20;;;2.10;99.90;;;;;;5113729;27;20190;-61
2021/01/08 03:47:54;;;;;;;1.73;0.30;;;2.10;99.90;;;;;;5109474;28;20226;-60
2021/01/08 03:50:19;;;;;;;1.70;0.20;;;2.10;99.90;;;;;;5118160;28;20179;-60
2021/01/08 03:52:45;;;;;;;1.70;0.20;;;2.10;99.90;;;;;;5113776;27;20194;-59
2021/01/08 03:55:10;;;;;;;9.40;4.67;;;2.10;99.90;;;;;;5115257;28;20676;-61
2021/01/08 03:57:36;;;;;;;5.60;3.13;;;2.00;99.90;;;;;;5115219;28;20274;-61
2021/01/08 04:00:04;;;;;;;1.80;0.20;;;2.00;99.90;;;;;;5112171;28;20195;-60
2021/01/08 04:02:29;;;;;;;1.70;0.20;;;2.00;99.90;;;;;;5114834;28;20237;-60
2021/01/08 04:04:55;;;;;;;4.53;1.43;;;2.00;99.90;;;;;;5116502;28;20580;-61
2021/01/08 04:07:20;;;;;;;7.10;4.03;;;2.00;99.90;;;;;;5110609;27;20209;-61
2021/01/08 04:09:46;;;;;;;1.70;0.20;;;1.90;99.90;;;;;;5116574;28;20183;-61
2021/01/08 04:12:12;;;;;;;4.33;1.80;;;1.90;99.90;;;;;;5097135;28;20222;-60
2021/01/08 04:14:38;;;;;;;1.90;0.75;;;2.00;99.90;;;;;;5109657;28;20656;-60
2021/01/08 04:17:03;;;;;;;9.40;2.80;;;2.00;99.90;;;;;;5113069;28;20282;-60
2021/01/08 04:19:29;;;;;;;4.87;1.87;;;2.00;99.90;;;;;;5115298;28;20259;-60
2021/01/08 04:21:54;;;;;;;9.07;5.97;;;2.00;99.90;;;;;;5113364;28;20205;-60
2021/01/08 04:24:20;;;;;;;4.87;3.03;;;2.00;99.90;;;;;;5117855;28;20177;-60
2021/01/08 04:26:45;;;;;;;1.80;0.30;;;2.00;99.90;;;;;;5111093;28;20291;-60
2021/01/08 04:29:11;;;;;;;7.63;4.30;;;2.00;99.90;;;;;;5112330;28;20193;-59
2021/01/08 04:31:37;;;;;;;1.70;0.20;;;2.10;99.90;;;;;;5116879;28;20179;-60
2021/01/08 04:34:03;;;;;;;3.40;0.73;;;2.20;99.90;;;;;;5092522;28;20191;-60
2021/01/08 04:36:28;;;;;;;2.50;0.93;;;2.20;99.90;;;;;;5108341;28;20293;-59
2021/01/08 04:38:54;;;;;;;2.20;0.50;;;2.10;99.90;;;;;;5098503;28;20278;-60
2021/01/08 04:41:19;;;;;;;2.37;0.47;;;2.10;99.90;;;;;;5111366;28;20248;-60
2021/01/08 04:43:45;;;;;;;5.53;2.67;;;2.10;99.90;;;;;;5117643;28;20179;-61
2021/01/08 04:46:17;;;;;;;2.37;0.73;;;2.00;99.90;;;;;;5113443;28;20277;-60
2021/01/08 04:48:44;;;;;;;3.53;2.20;;;2.10;99.90;;;;;;5112638;28;20187;-60
2021/01/08 04:51:11;;;;;;;11.90;6.38;;;2.10;99.90;;;;;;5117331;28;20194;-63
2021/01/08 04:53:37;;;;;;;4.63;3.35;;;2.00;99.90;;;;;;5117774;28;20191;-61
2021/01/08 04:56:06;;;;;;;7.93;3.83;;;2.10;99.90;;;;;;5111431;28;20218;-61
2021/01/08 04:58:32;;;;;;;1.80;0.40;;;2.10;99.90;;;;;;5114463;28;20203;-60
2021/01/08 05:01:01;;;;;;;1.73;0.20;;;2.10;99.90;;;;;;5116859;28;20183;-61
2021/01/08 05:03:28;;;;;;;2.78;1.27;;;2.00;99.90;;;;;;5124400;28;20475;-60
2021/01/08 05:05:55;;;;;;;4.68;1.30;;;2.10;99.90;;;;;;5136037;28;20171;-64
2021/01/08 05:08:20;;;;;;;2.50;0.95;;;2.10;99.90;;;;;;5117495;28;20190;-59
2021/01/08 05:10:46;;;;;;;4.13;2.00;;;2.10;99.90;;;;;;5134524;28;20175;-60
2021/01/08 05:13:50;;;;;;;7.30;3.97;;;2.10;99.90;;;;;;5134544;28;20419;-60
2021/01/08 05:16:15;;;;;;;3.92;2.03;;;2.10;99.90;;;;;;5131684;28;20403;-61
2021/01/08 05:18:42;;;;;;;1.70;0.20;;;2.10;99.90;;;;;;5133812;28;20182;-59
2021/01/08 05:21:07;;;;;;;1.75;0.30;;;2.10;99.90;;;;;;5136526;27;20191;-60
2021/01/08 05:23:34;;;;;;;4.47;1.33;;;2.10;99.90;;;;;;5138685;28;20196;-59
2021/01/08 05:26:02;;;;;;;8.32;6.80;;;2.00;99.90;;;;;;5134759;27;20199;-60
2021/01/08 05:28:28;;;;;;;2.42;1.05;;;1.90;99.90;;;;;;5137942;28;20187;-61
2021/01/08 05:30:57;;;;;;;1.70;0.20;;;1.90;99.90;;;;;;5132820;28;20176;-61
2021/01/08 05:33:23;;;;;;;1.70;0.20;;;1.90;99.90;;;;;;5129379;28;20175;-60
2021/01/08 05:35:50;;;;;;;2.50;0.77;;;1.90;99.90;;;;;;5117865;28;20299;-60
2021/01/08 05:38:21;;;;;;;6.85;3.63;;;1.90;99.90;;;;;;5117887;28;20184;-60
2021/01/08 05:40:46;;;;;;;2.35;1.00;;;1.90;99.90;;;;;;5121640;28;20171;-61
2021/01/08 05:43:12;;;;;;;8.40;5.20;;;1.90;99.90;;;;;;5122815;28;20171;-61
2021/01/08 05:45:38;;;;;;;11.13;6.37;;;1.80;99.90;;;;;;5121596;27;20179;-61
2021/01/08 05:48:05;;;;;;;2.80;1.23;;;1.80;99.90;;;;;;5136196;28;20207;-60
2021/01/08 05:50:32;;;;;;;9.60;5.63;;;1.80;99.90;;;;;;5139656;27;20202;-61
2021/01/08 05:53:05;;;;;;;3.95;2.58;;;1.70;99.90;;;;;;5117063;27;20193;-61
2021/01/08 05:55:41;;;;;;;1.80;0.30;;;1.80;99.90;;;;;;5115430;28;20206;-62
2021/01/08 05:58:36;;;;;;;6.38;4.10;;;1.80;99.90;;;;;;5129406;28;20206;-59
2021/01/08 06:01:04;;;;;;;2.00;0.68;;;1.70;99.90;;;;;;5111468;28;20222;-60
2021/01/08 06:03:31;;;;;;;2.10;0.50;;;1.80;99.90;;;;;;5134337;27;20184;-60
2021/01/08 06:05:58;;;;;;;3.38;1.85;;;1.80;99.90;;;;;;5136148;28;20187;-59
2021/01/08 06:08:38;;;;;;;1.80;0.30;;;1.80;99.90;;;;;;5129346;28;20188;-59
2021/01/08 06:11:07;;;;;;;2.22;0.63;;;1.80;99.90;;;;;;5123954;28;20207;-60
2021/01/08 06:13:35;;;;;;;1.70;0.20;;;1.90;99.90;;;;;;5126185;28;20188;-59
2021/01/08 06:16:02;;;;;;;12.02;6.35;;;1.90;99.90;;;;;;5124474;28;20681;-59
2021/01/08 06:18:28;;;;;;;1.70;0.20;;;1.80;99.90;;;;;;5122458;27;20642;-60
2021/01/08 06:21:03;;;;;;;1.70;0.20;;;1.80;99.90;;;;;;5123397;28;20290;-60
2021/01/08 06:23:48;;;;;;;4.75;2.25;;;1.80;99.90;;;;;;5107178;28;20270;-60
2021/01/08 06:26:19;;;;;;;8.10;6.38;;;1.80;99.90;;;;;;5117282;28;20207;-60
2021/01/08 06:28:52;;;;;;;5.18;2.13;;;1.80;99.90;;;;;;5116462;28;20218;-60
2021/01/08 06:31:25;;;;;;;1.70;0.25;;;1.70;99.90;;;;;;5109907;28;20176;-60
2021/01/08 06:33:59;;;;;;;1.70;0.30;;;1.80;99.90;;;;;;5112209;28;20547;-59
2021/01/08 06:36:26;;;;;;;1.90;0.47;;;1.80;99.90;;;;;;5120953;28;20229;-61
2021/01/08 06:38:54;;;;;;;1.70;0.20;;;1.80;99.90;;;;;;5115736;27;20183;-59
2021/01/08 06:41:20;;;;;;;1.90;0.57;;;1.80;99.90;;;;;;5112058;28;20183;-61
2021/01/08 06:43:51;;;;;;;3.60;2.60;;;1.80;99.90;;;;;;5110953;28;20188;-60
2021/01/08 06:46:27;;;;;;;1.70;0.20;;;1.80;99.90;;;;;;5116076;28;20248;-60
2021/01/08 06:48:55;;;;;;;5.00;3.33;;;1.70;99.90;;;;;;5110786;27;20176;-61
2021/01/08 06:51:28;;;;;;;6.75;3.35;;;1.80;99.90;;;;;;5116035;28;20189;-61
2021/01/08 06:53:59;;;;;;;1.70;0.20;;;1.80;99.90;;;;;;5091647;27;20240;-61
2021/01/08 06:56:49;;;;;;;4.93;1.85;;;1.80;99.90;;;;;;5107561;27;20231;-62
2021/01/08 06:59:18;;;;;;;7.45;4.68;;;1.80;99.90;;;;;;5105682;28;20202;-60
2021/01/08 07:01:54;;;;;;;3.00;1.88;;;1.70;99.90;;;;;;5108208;28;20191;-60
2021/01/08 07:04:25;;;;;;;3.40;1.98;;;1.80;99.90;;;;;;5108932;27;20186;-60
2021/01/08 07:06:52;;;;;;;2.58;1.35;;;1.80;99.90;;;;;;5114066;28;20230;-61
2021/01/08 07:09:18;;;;;;;1.70;0.20;;;1.70;99.90;;;;;;5109550;28;20207;-62
2021/01/08 07:11:43;;;;;;;8.13;4.43;;;1.70;99.90;;;;;;5112625;27;20305;-60
2021/01/08 07:14:14;;;;;;;5.43;2.83;;;1.70;99.90;;;;;;5115052;28;20191;-60
2021/01/08 07:16:44;;;;;;;1.70;0.20;;;1.70;99.90;;;;;;5106576;28;20693;-61
2021/01/08 07:19:13;;;;;;;10.20;5.95;;;1.70;99.90;;;;;;5108450;28;20065;-61
2021/01/08 07:21:47;;;;;;;3.65;1.85;;;1.80;99.90;;;;;;5121694;27;20186;-61
2021/01/08 07:24:14;;;;;;;4.68;4.18;;;1.80;99.90;;;;;;5110560;27;20189;-60
2021/01/08 07:26:40;;;;;;;2.08;0.43;;;1.80;99.90;;;;;;5107269;28;20229;-60
2021/01/08 07:29:08;;;;;;;11.98;5.97;;;1.90;99.90;;;;;;5112825;27;20225;-61
2021/01/08 07:31:38;;;;;;;7.72;4.20;;;1.80;99.90;;;;;;5107272;28;20183;-61
2021/01/08 07:34:06;;;;;;;3.40;2.47;;;1.80;99.90;;;;;;5110058;28;20190;-61
2021/01/08 07:36:33;;;;;;;5.90;3.92;;;1.80;99.90;;;;;;5113485;27;20206;-61
2021/01/08 07:39:00;;;;;;;1.70;0.30;;;1.80;99.90;;;;;;5110245;27;20189;-61
2021/01/08 07:41:33;;;;;;;2.05;1.10;;;1.80;99.90;;;;;;5107977;28;20175;-60
2021/01/08 07:43:59;;;;;;;1.80;0.40;;;1.90;99.90;;;;;;5110110;28;20210;-61
2021/01/08 07:46:32;;;;;;;1.70;0.20;;;1.90;99.90;;;;;;5122070;27;20202;-61
2021/01/08 07:49:00;;;;;;;1.70;0.30;;;1.90;99.90;;;;;;5092151;28;20195;-61
2021/01/08 07:51:45;;;;;;;1.70;0.20;;;1.80;99.90;;;;;;5115448;27;20187;-61
2021/01/08 07:54:12;;;;;;;4.00;1.67;;;1.80;99.90;;;;;;5116710;27;20672;-61
2021/01/08 07:57:04;;;;;;;4.90;2.60;;;1.80;99.90;;;;;;5105204;28;20207;-61
2021/01/08 07:59:30;;;;;;;4.70;2.95;;;1.80;99.90;;;;;;5108311;27;20175;-61
2021/01/08 08:01:55;;;;;;;2.00;0.50;;;1.80;99.90;;;;;;5112015;27;20633;-62
2021/01/08 08:04:25;;;;;;;3.60;1.77;;;1.80;99.90;;;;;;5105044;28;20433;-61
2021/01/08 08:06:51;;;;;;;3.17;2.30;;;1.80;99.90;;;;;;5114438;27;20195;-61
2021/01/08 08:09:17;;;;;;;12.00;6.93;;;1.80;99.90;;;;;;5111682;27;20183;-62
2021/01/08 08:11:43;;;;;;;4.60;1.30;;;1.80;99.90;;;;;;5109833;27;20210;-61
2021/01/08 08:14:14;;;;;;;2.97;1.40;;;1.80;99.90;;;;;;5104135;27;20241;-66
2021/01/08 08:16:41;;;;;;;1.70;0.20;;;1.80;99.90;;;;;;5114518;27;20219;-61
2021/01/08 08:19:11;;;;;;;5.40;1.60;;;1.80;99.90;;;;;;5108285;27;20248;-61
2021/01/08 08:21:37;;;;;;;4.85;1.30;;;1.80;99.90;;;;;;5114188;28;20192;-61
2021/01/08 08:24:05;;;;;;;5.43;3.45;;;1.80;99.90;;;;;;5108841;28;20175;-61
2021/01/08 08:26:32;;;;;;;1.80;0.35;;;1.80;99.90;;;;;;5109217;28;20207;-61
2021/01/08 08:29:09;;;;;;;1.70;0.20;;;1.80;99.90;;;;;;5104576;28;20199;-61
2021/01/08 08:31:56;;;;;;;7.10;3.85;;;1.90;99.90;;;;;;5107710;28;20553;-61
2021/01/08 08:34:31;;;;;;;5.78;3.38;;;1.90;99.90;;;;;;5103948;28;20181;-61
2021/01/08 08:37:10;;;;;;;8.50;4.70;;;1.80;99.90;;;;;;5106876;27;20214;-60
2021/01/08 08:39:35;;;;;;;1.70;0.20;;;1.80;99.90;;;;;;5112418;28;20182;-61
2021/01/08 08:42:01;;;;;;;5.83;4.40;;;1.80;99.90;;;;;;5108054;28;20184;-61
2021/01/08 08:44:27;;;;;;;2.97;1.50;;;1.80;99.90;;;;;;5110134;28;20417;-61
2021/01/08 08:46:56;;;;;;;5.20;3.80;;;1.80;99.90;;;;;;5107875;28;20214;-61
2021/01/08 08:49:36;;;;;;;1.80;0.43;;;1.80;99.90;;;;;;5107798;28;20672;-61
2021/01/08 08:52:02;;;;;;;3.53;1.77;;;1.80;99.90;;;;;;5111360;28;20179;-61
2021/01/08 08:54:28;;;;;;;8.25;4.30;;;1.90;99.90;;;;;;5115060;27;20186;-62
2021/01/08 08:56:55;;;;;;;4.30;2.37;;;1.90;99.90;;;;;;5110177;28;20677;-61
2021/01/08 08:59:46;;;;;;;4.30;2.92;;;1.90;99.90;;;;;;5116293;28;21003;-61
2021/01/08 09:02:27;;;;;;;9.23;4.57;;;1.90;99.90;;;;;;5111862;27;20190;-61
2021/01/08 09:05:04;;;;;;;7.30;3.03;;;1.90;99.90;;;;;;5107942;27;20171;-61
2021/01/08 09:07:39;;;;;;;6.30;4.00;;;1.90;99.90;;;;;;5113038;27;20219;-60
2021/01/08 09:10:07;;;;;;;1.70;0.20;;;1.90;99.90;;;;;;5117749;27;20179;-60
2021/01/08 09:12:41;;;;;;;3.60;1.75;;;1.90;99.90;;;;;;5114582;27;20248;-61
2021/01/08 09:15:17;;;;;;;1.70;0.20;;;2.00;99.90;;;;;;5113001;27;20321;-61
2021/01/08 09:17:44;;;;;;;1.70;0.30;;;2.00;99.90;;;;;;5116886;27;20186;-61
2021/01/08 09:20:14;;;;;;;1.70;0.20;;;2.10;99.90;;;;;;5113698;27;20187;-61
2021/01/08 09:22:40;;;;;;;1.70;0.20;;;2.20;99.90;;;;;;5119666;27;20225;-61
2021/01/08 09:25:07;;;;;;;2.47;1.30;;;2.20;99.90;;;;;;5114390;27;20549;-61
2021/01/08 09:27:34;;;;;;;2.35;1.23;;;2.20;99.90;;;;;;5114208;28;20232;-61
2021/01/08 09:30:08;;;;;;;1.70;0.20;;;2.10;99.90;;;;;;5119211;27;20184;-61
2021/01/08 09:32:34;;;;;;;1.70;0.20;;;2.10;99.90;;;;;;5112635;27;20188;-61
2021/01/08 09:35:20;;;;;;;1.70;0.20;;;2.10;99.90;;;;;;5090749;28;20176;-61
2021/01/08 09:37:51;;;;;;;1.70;0.20;;;2.10;99.90;;;;;;5113478;27;20991;-61
2021/01/08 09:40:18;;;;;;;6.80;3.15;;;2.20;99.90;;;;;;5112309;27;20179;-60
2021/01/08 09:42:45;;;;;;;3.75;2.25;;;2.10;99.90;;;;;;5112882;28;20244;-61
2021/01/08 09:45:20;;;;;;;1.70;0.20;;;2.10;99.90;;;;;;5117866;27;20202;-60
2021/01/08 09:47:46;;;;;;;1.75;0.20;;;2.10;99.90;;;;;;5116504;27;20210;-61
2021/01/08 09:50:25;;;;;;;1.83;0.20;;;2.10;99.90;;;;;;5110861;27;20183;-61
2021/01/08 09:52:52;;;;;;;2.10;0.77;;;2.20;99.90;;;;;;5116382;27;20179;-61
2021/01/08 09:55:31;;;;;;;17.83;5.68;;;2.30;99.90;;;;;;5113442;27;20217;-61
2021/01/08 09:57:59;;;;;;;1.80;0.35;;;2.20;99.90;;;;;;5136589;27;21134;-60
2021/01/08 10:00:35;;;;;;;2.30;0.65;;;2.20;99.90;;;;;;5108279;27;20189;-60
2021/01/08 10:03:00;;;;;;;1.70;0.20;;;2.20;99.90;;;;;;5098247;28;20251;-61
2021/01/08 10:05:30;;;;;;;1.70;0.20;;;2.30;99.90;;;;;;5113108;27;20202;-61
2021/01/08 10:07:57;;;;;;;1.70;0.22;;;2.30;99.90;;;;;;5120308;27;20210;-60
2021/01/08 10:10:25;;;;;;;6.22;3.33;;;2.30;99.90;;;;;;5117319;28;20168;-60
2021/01/08 10:12:52;;;;;;;1.73;0.20;;;2.20;99.90;;;;;;5097208;27;20193;-61
2021/01/08 10:15:19;;;;;;;2.55;1.10;;;2.20;99.90;;;;;;5112998;27;20197;-59
2021/01/08 10:17:51;;;;;;;4.50;2.53;;;2.20;99.90;;;;;;5115619;28;20553;-59
2021/01/08 10:20:20;;;;;;;3.92;2.50;;;2.20;99.90;;;;;;5106602;28;20649;-59
2021/01/08 10:22:52;;;;;;;2.58;1.10;;;2.20;99.90;;;;;;5105875;28;20191;-59
2021/01/08 10:25:26;;;;;;;2.00;0.95;;;2.20;99.90;;;;;;5114289;28;20331;-59
2021/01/08 10:27:52;;;;;;;1.80;0.50;;;2.30;99.90;;;;;;5109964;27;20209;-59
2021/01/08 10:30:18;;;;;;;3.30;0.83;;;2.20;99.90;;;;;;5113482;28;20202;-59
2021/01/08 10:32:50;;;;;;;6.68;3.85;;;2.30;99.90;;;;;;5111526;28;20514;-59
2021/01/08 10:35:19;;;;;;;1.80;0.50;;;2.30;99.90;;;;;;5113819;27;20795;-58
2021/01/08 10:37:47;;;;;;;1.77;0.30;;;2.20;99.90;;;;;;5115182;28;20753;-58
2021/01/08 10:40:13;;;;;;;5.88;2.38;;;2.20;99.90;;;;;;5098584;28;20183;-58
2021/01/08 10:42:39;;;;;;;1.70;0.20;;;2.20;99.90;;;;;;5107335;27;20196;-58
2021/01/08 10:45:05;;;;;;;5.63;2.63;;;2.20;99.90;;;;;;5094744;28;20183;-58
2021/01/08 10:47:31;;;;;;;1.90;0.70;;;2.20;99.90;;;;;;5108983;27;20200;-58
2021/01/08 10:49:59;;;;;;;1.70;0.20;;;2.20;99.90;;;;;;5109429;28;20253;-58
2021/01/08 10:52:25;;;;;;;1.75;0.20;;;2.30;99.90;;;;;;5109680;27;20180;-58
2021/01/08 10:54:51;;;;;;;1.70;0.20;;;2.30;99.90;;;;;;5110091;27;20240;-58
2021/01/08 10:57:16;;;;;;;1.90;0.50;;;2.30;99.90;;;;;;5112200;27;20285;-58
2021/01/08 10:59:42;;;;;;;3.70;1.50;;;2.20;99.90;;;;;;5109816;28;20588;-57
2021/01/08 11:02:07;;;;;;;3.20;1.30;;;2.20;99.90;;;;;;5111658;28;20188;-58
2021/01/08 11:04:33;;;;;;;1.70;0.20;;;2.30;99.90;;;;;;5099887;22;20216;-61
2021/01/08 11:06:59;;;;;;;1.80;0.30;;;2.30;99.90;;;;;;5060170;28;20174;-60
2021/01/08 11:09:24;;;;;;;2.77;0.90;;;2.30;99.90;;;;;;5067260;28;20178;-60
2021/01/08 11:11:50;;;;;;;4.20;1.97;;;2.30;99.90;;;;;;5066700;28;20215;-61
2021/01/08 11:14:16;;;;;;;1.70;0.20;;;2.30;99.90;;;;;;5070676;28;20698;-60
2021/01/08 11:16:42;;;;;;;2.30;0.73;;;2.30;99.90;;;;;;5062836;28;20220;-61
2021/01/08 11:19:07;;;;;;;12.70;3.97;;;2.30;99.90;;;;;;5073306;28;20822;-60
2021/01/08 11:21:33;;;;;;;2.13;0.53;;;2.30;99.90;;;;;;5069875;28;20470;-60
2021/01/08 11:23:58;;;;;;;2.87;0.60;;;2.40;99.90;;;;;;5069551;28;20239;-61
2021/01/08 11:26:27;;;;;;;8.20;4.70;;;2.40;99.90;;;;;;5070320;28;20597;-60
2021/01/08 11:28:54;;;;;;;3.15;0.95;;;2.30;99.90;;;;;;5071488;28;20196;-59
2021/01/08 11:31:19;;;;;;;5.03;2.88;;;2.30;99.90;;;;;;5066809;28;20215;-60
2021/01/08 11:33:46;;;;;;;14.63;2.40;;;2.30;99.90;;;;;;5068679;28;20556;-61
2021/01/08 11:36:12;;;;;;;2.00;0.43;;;2.30;99.90;;;;;;5069411;28;20247;-60
2021/01/08 11:38:39;;;;;;;1.75;0.30;;;2.30;99.90;;;;;;5070197;28;20659;-60
2021/01/08 11:41:05;;;;;;;2.55;0.77;;;2.30;99.90;;;;;;5056940;28;20177;-60
2021/01/08 11:43:30;;;;;;;6.18;3.28;;;2.30;99.90;;;;;;5066927;28;20693;-60
2021/01/08 11:45:56;;;;;;;2.53;1.50;;;2.30;99.90;;;;;;5068907;28;20184;-60
2021/01/08 11:48:21;;;;;;;1.77;0.20;;;2.40;99.90;;;;;;5069840;28;20196;-60
2021/01/08 11:50:47;;;;;;;1.90;0.50;;;2.40;99.90;;;;;;5051970;28;20189;-60
2021/01/08 11:53:12;;;;;;;8.17;4.43;;;2.40;99.90;;;;;;5071739;28;20270;-59
2021/01/08 11:55:38;;;;;;;3.70;2.30;;;2.50;99.90;;;;;;5067956;28;20216;-59
2021/01/08 11:58:03;;;;;;;4.20;2.10;;;2.50;99.90;;;;;;5073540;28;20241;-60
2021/01/08 12:00:29;;;;;;;5.27;2.73;;;2.50;99.90;;;;;;5066876;28;20188;-60
2021/01/08 12:02:54;;;;;;;2.40;1.13;;;2.60;99.90;;;;;;5069219;28;20215;-60
2021/01/08 12:05:20;;;;;;;1.70;0.20;;;2.50;99.90;;;;;;5068466;28;20196;-60
2021/01/08 12:07:45;;;;;;;1.80;0.30;;;2.60;99.90;;;;;;5071950;28;20737;-60
2021/01/08 12:10:11;;;;;;;2.77;0.70;;;2.60;99.90;;;;;;5070911;28;20215;-60
2021/01/08 12:12:37;;;;;;;2.20;0.83;;;2.60;99.90;;;;;;5065556;28;20184;-60
2021/01/08 12:15:03;;;;;;;3.07;1.73;;;2.60;99.90;;;;;;5071543;28;20180;-60
2021/01/08 12:17:29;;;;;;;5.40;2.83;;;2.60;99.90;;;;;;5069762;28;20188;-59
2021/01/08 12:19:54;;;;;;;1.80;0.20;;;2.60;99.90;;;;;;5070795;28;20265;-60
2021/01/08 12:22:20;;;;;;;2.30;1.27;;;2.70;99.90;;;;;;5068329;28;20267;-59
2021/01/08 12:24:46;;;;;;;6.73;4.03;;;2.80;99.90;;;;;;5068862;28;20204;-59
2021/01/08 12:27:11;;;;;;;1.93;0.70;;;2.80;99.90;;;;;;5068375;28;20241;-59
2021/01/08 12:29:36;;;;;;;1.73;0.20;;;2.80;99.90;;;;;;5071912;28;20310;-59
2021/01/08 12:32:03;;;;;;;1.70;0.30;;;2.80;99.90;;;;;;5065311;28;20188;-59
2021/01/08 12:34:29;;;;;;;3.50;3.20;;;2.80;99.90;;;;;;5064278;28;20201;-59
2021/01/08 12:36:54;;;;;;;5.10;2.00;;;2.90;99.90;;;;;;5072376;28;20212;-60
2021/01/08 12:39:20;;;;;;;1.70;0.20;;;2.90;99.90;;;;;;5068944;28;20263;-60
2021/01/08 12:41:45;;;;;;;1.73;0.20;;;2.90;99.90;;;;;;5067329;28;20187;-60
2021/01/08 12:44:11;;;;;;;1.70;0.20;;;3.00;99.90;;;;;;5069740;28;20283;-60
2021/01/08 12:46:37;;;;;;;1.70;0.20;;;3.00;99.90;;;;;;5070600;28;20203;-60
2021/01/08 12:49:05;;;;;;;1.73;0.20;;;2.90;99.90;;;;;;5070559;28;20198;-59
2021/01/08 12:51:34;;;;;;;1.70;0.20;;;3.00;99.90;;;;;;5068451;28;20191;-59
2021/01/08 12:54:01;;;;;;;2.00;0.47;;;3.00;99.90;;;;;;5064801;28;20265;-60
2021/01/08 12:56:31;;;;;;;1.70;0.20;;;2.90;99.90;;;;;;5071111;28;20246;-59
2021/01/08 12:58:57;;;;;;;1.70;0.20;;;2.90;99.90;;;;;;5072707;28;20181;-59
2021/01/08 13:01:22;;;;;;;1.80;0.20;;;3.00;99.90;;;;;;5072239;28;20352;-60
2021/01/08 13:03:48;;;;;;;1.70;0.20;;;3.00;99.90;;;;;;5071955;28;20204;-59